• Join FlightAware (Why Join?)
  • Login
  • US Flag 
07:40PM EST


 

Airport Tracker/Info


-or-


 

Live Flight TrackerFlight Track Log ✈ ASQ5807 ✈ 06-Jul-2013 ✈ KMHT - KORD

Flight Track Log - Related Links

Times and Time Zones

All times are in EDT time to prevent confusion due to time zone crossing. See the ASQ5807 flight status page for this flight to view local times or setup timezone preferences in your user account.

Time Position Orientation Groundspeed Altitude Reporting Facility
EDT Latitude Longitude Course Direction KTS MPH feet Rate Location/Type
06:28AM 42.9167 -71.4167 270° West 163 188 800  Level KA90
06:30AM 42.9306 -71.5611 278° West 202 232 4,700 1,680 Climbing Boston Center
06:31AM 42.9333 -71.7874 270° West  Level FlightAware Approximate
06:31AM 42.9686 -71.6258 309° West 235 270 6,500  Level Boston Center
06:32AM 42.9500 -71.9031 270° West  Level FlightAware Approximate
06:32AM 43.0150 -71.7103 307° West 255 293 8,500  Level Boston Center
06:33AM 42.9500 -72.0219 270° West  Level FlightAware Approximate
06:33AM 43.0592 -71.7836 310° West 268 308 10,000  Level Boston Center
06:34AM 42.9500 -72.1661 270° West  Level FlightAware Approximate
06:34AM 43.1158 -71.8797 309° West 299 344 11,000  Level Boston Center
06:35AM 43.1664 -71.9647 309° West 309 356 12,400 1,500 Climbing Boston Center
06:36AM 43.2250 -72.0669 308° West 314 361 14,000 1,740 Climbing Boston Center
06:37AM 43.2608 -72.1550 299° West 309 356 15,900 1,560 Climbing Boston Center
06:38AM 43.2631 -72.2633 272° West 276 318 17,200 1,200 Climbing Boston Center
06:39AM 43.2631 -72.3831 270° West 276 318 18,300 1,200 Climbing Boston Center
06:40AM 43.2611 -72.5000 269° West 289 333 19,600 1,260 Climbing Boston Center
06:41AM 43.2611 -72.6056 270° West 301 346 20,900 1,260 Climbing Boston Center
06:42AM 43.2586 -72.7222 268° West 306 352 22,200 1,260 Climbing Boston Center
06:43AM 43.2583 -72.8364 270° West 306 352 23,500 1,200 Climbing Boston Center
06:44AM 43.2558 -72.9503 268° West 306 352 24,600 1,020 Climbing Boston Center
06:45AM 43.2553 -73.0700 270° West 306 352 25,600 960 Climbing Boston Center
06:46AM 43.2525 -73.1897 268° West 306 352 26,600 960 Climbing Boston Center
06:47AM 43.2494 -73.3094 268° West 311 358 27,600 1,020 Climbing Boston Center
06:48AM 43.2442 -73.4406 267° West 311 358 28,700 900 Climbing Boston Center
06:49AM 43.2433 -73.5403 269° West 311 358 29,500 780 Climbing Boston Center
06:51AM 43.2400 -73.6742 268° West 316 364 30,500 960 Climbing Boston Center
06:52AM 43.2361 -73.8222 268° West 323 372 31,700 720 Climbing Boston Center
06:53AM 43.2344 -73.9506 269° West 328 377 32,000 540 Climbing Boston Center
06:54AM 43.2306 -74.0844 268° West 341 392 32,800 900 Climbing Boston Center
06:55AM 43.2264 -74.2153 268° West 347 399 33,800 900 Climbing Boston Center
06:56AM 43.2244 -74.3492 269° West 347 399 34,700 900 Climbing Boston Center
06:57AM 43.2200 -74.4772 267° West 347 399 35,700 600 Climbing Boston Center
06:58AM 43.2175 -74.6083 269° West 347 399 36,000 120 Climbing Boston Center
06:59AM 43.2128 -74.7419 267° West 352 405 36,000  Level Boston Center
07:00AM 43.2078 -74.8842 267° West 358 412 36,000  Level Boston Center
07:01AM 43.2028 -75.0236 267° West 371 427 36,000  Level Boston Center
07:02AM 43.1953 -75.1628 266° West 371 427 36,000  Level Boston Center
07:03AM 43.1925 -75.2767 268° West 371 427 36,000  Level Boston Center
07:04AM 43.1906 -75.4389 269° West 365 420 36,000  Level Boston Center
07:05AM 43.1844 -75.5869 267° West 365 420 36,000  Level Boston Center
07:06AM 43.1778 -75.7458 267° West 360 414 36,000  Level Boston Center
07:07AM 43.1739 -75.8739 268° West 355 409 36,000  Level Boston Center
07:09AM 43.1625 -76.1853 267° West 340 391 36,000  Level Cleveland Center
07:10AM 43.1608 -76.3136 269° West 345 397 36,000  Level Cleveland Center
07:11AM 43.1594 -76.4475 269° West 350 403 36,000  Level Cleveland Center
07:12AM 43.1600 -76.5811 270° West 350 403 36,000  Level Cleveland Center
07:13AM 43.1603 -76.7094 270° West 350 403 36,000  Level Cleveland Center
07:14AM 43.1586 -76.8461 269° West 350 403 36,000  Level Cleveland Center
07:15AM 43.1586 -76.9800 270° West 350 403 36,000  Level Cleveland Center
07:16AM 43.1586 -77.1136 270° West 350 403 36,000  Level Cleveland Center
07:17AM 43.1564 -77.2506 269° West 355 409 36,000  Level Cleveland Center
07:18AM 43.1561 -77.3900 270° West 369 425 36,000  Level Cleveland Center
07:19AM 43.1539 -77.5381 269° West 380 437 36,000  Level Cleveland Center
07:20AM 43.1533 -77.6806 270° West 380 437 36,000  Level Cleveland Center
07:21AM 43.1506 -77.8256 269° West 385 443 36,000  Level Cleveland Center
07:22AM 43.1497 -77.9708 270° West 385 443 36,000  Level Cleveland Center
07:23AM 43.1467 -78.1133 268° West 385 443 36,000  Level Cleveland Center
07:24AM 43.1456 -78.2642 269° West 379 436 36,000  Level Cleveland Center
07:25AM 43.1419 -78.3981 268° West 365 420 36,000  Level Cleveland Center
07:26AM 43.1381 -78.5264 268° West 359 413 36,000  Level Cleveland Center
07:27AM 43.1342 -78.6628 268° West 359 413 36,000  Level Cleveland Center
07:28AM 43.1300 -78.7997 268° West 359 413 36,000  Level Cleveland Center
07:29AM 43.1278 -78.9333 269° West 359 413 36,000  Level Cleveland Center
07:30AM 43.1214 -79.0700 266° West 359 413 36,000  Level Cleveland Center
07:31AM 43.1000 -79.2000 257° West 360 414 36,000  Level Toronto Center
07:32AM 43.1000 -79.3667 270° West 360 414 36,000  Level Toronto Center
07:33AM 43.1000 -79.4667 270° West 360 414 36,000  Level Toronto Center
07:34AM 43.1000 -79.6167 270° West 360 414 36,000  Level Toronto Center
07:35AM 43.0833 -79.7667 261° West 360 414 36,000  Level Toronto Center
07:36AM 43.0833 -79.8833 270° West 360 414 36,000  Level Toronto Center
07:37AM 43.0833 -80.0500 270° West 360 414 36,000  Level Toronto Center
07:38AM 43.0667 -80.1500 257° West 360 414 36,000  Level Toronto Center
07:39AM 43.0667 -80.3167 270° West 360 414 36,000  Level Toronto Center
07:40AM 43.0667 -80.4500 270° West 370 426 36,000  Level Toronto Center
07:41AM 43.0500 -80.5833 260° West 380 437 36,000  Level Toronto Center
07:42AM 43.0500 -80.7500 270° West 380 437 36,000  Level Toronto Center
07:43AM 43.0333 -80.8833 260° West 380 437 36,000  Level Toronto Center
07:44AM 43.0167 -81.0167 260° West 380 437 36,000  Level Toronto Center
07:45AM 43.0167 -81.1833 270° West 380 437 36,000  Level Toronto Center
07:46AM 43.0167 -81.3167 270° West 380 437 36,000  Level Toronto Center
07:47AM 43.0167 -81.4500 270° West 380 437 36,000  Level Toronto Center
07:48AM 43.0167 -81.6167 270° West 390 449 36,000  Level Toronto Center
07:49AM 43.0167 -81.7500 270° West 380 437 36,000  Level Toronto Center
07:50AM 43.0167 -81.8833 270° West 380 437 36,000  Level Toronto Center
07:51AM 43.0000 -82.0500 262° West 380 437 36,000  Level Toronto Center
07:52AM 43.0000 -82.1833 270° West 380 437 36,000  Level Toronto Center
07:53AM 43.0000 -82.3167 270° West 380 437 36,000  Level Toronto Center
07:54AM 43.0000 -82.4833 270° West 380 437 36,000 -540 Level Toronto Center
07:55AM 43.0000 -82.6167 270° West 380 437 35,000 -1,140 Descending Toronto Center
07:57AM 42.9983 -82.7575 269° West 382 440 33,800 -1,320 Descending Cleveland Center
07:58AM 42.9956 -82.8994 269° West 382 440 32,400 -1,380 Descending Cleveland Center
07:59AM 42.9922 -83.0497 268° West 387 445 31,100 -1,200 Descending Cleveland Center
08:00AM 42.9847 -83.2028 266° West 392 451 30,000 -600 Descending Cleveland Center
08:01AM 42.9792 -83.3500 267° West 398 458 30,000  Level Cleveland Center
08:02AM 42.9736 -83.4975 267° West 398 458 30,000  Level Cleveland Center
08:03AM 42.9678 -83.6447 267° West 393 452 30,000  Level Cleveland Center
08:04AM 42.9594 -83.7947 266° West 398 458 30,000  Level Cleveland Center
08:05AM 42.9467 -83.9500 264° West 404 465 30,000  Level Cleveland Center
08:06AM 42.9317 -84.1025 262° West 404 465 30,000  Level Cleveland Center
08:07AM 42.9117 -84.2772 261° West 413 475 30,000  Level Cleveland Center
08:08AM 42.9031 -84.4128 265° West 413 475 30,000  Level Cleveland Center
08:08AM 42.8911 -84.5069 260° West 417 480 30,000  Level Chicago Center
08:09AM 42.8758 -84.6617 262° West 413 475 30,000  Level Chicago Center
08:10AM 42.8597 -84.8172 262° West 414 476 30,000  Level Chicago Center
08:11AM 42.8428 -84.9731 262° West 416 479 30,000  Level Chicago Center
08:12AM 42.8258 -85.1292 262° West 417 480 30,000 -300 Level Chicago Center
08:13AM 42.8097 -85.2833 262° West 414 476 29,500 -1,260 Descending Chicago Center
08:14AM 42.7922 -85.4417 261° West 420 483 27,500 -1,740 Descending Chicago Center
08:15AM 42.7681 -85.5975 258° West 420 483 26,000 -1,560 Descending Chicago Center
08:16AM 42.7403 -85.7514 256° West 418 481 24,400 -1,560 Descending Chicago Center
08:17AM 42.7133 -85.8978 256° West 400 460 22,900 -1,620 Descending Chicago Center
08:18AM 42.6867 -86.0439 256° West 395 455 21,200 -1,440 Descending Chicago Center
08:19AM 42.6597 -86.1942 256° West 406 467 20,000 -840 Descending Chicago Center
08:20AM 42.6278 -86.3608 255° West 381 438 19,500 -1,500 Descending Chicago Center
08:21AM 42.6006 -86.5089 256° West 401 461 17,000 -2,580 Descending Chicago Center
08:22AM 42.5744 -86.6453 255° West 378 435 14,300 -2,460 Descending Chicago Center
08:23AM 42.5478 -86.7764 255° West 365 420 12,000 -1,800 Descending Chicago Center
08:24AM 42.5131 -86.9000 249° West 354 407 10,700 -960 Descending Chicago Center
08:25AM 42.4794 -87.0217 250° West 346 398 10,100 -360 Descending Chicago Center
08:26AM 42.4453 -87.1442 249° West 347 399 10,000 -360 Descending Chicago Center
08:27AM 42.4169 -87.2492 250° West 296 341 9,400 -600 Descending Chicago Center
08:28AM 42.3894 -87.3467 249° West 280 322 8,800 -840 Descending Chicago Center
08:29AM 42.3606 -87.4475 249° West 276 318 7,800 -900 Descending Chicago Center
08:31AM 42.3289 -87.5344 244° Southwest 252 290 7,000 -660 Descending Chicago Center
08:32AM 42.2656 -87.5961 216° Southwest 243 280 6,500 -780 Descending Chicago Center
08:33AM 42.2206 -87.6503 222° Southwest 220 253 5,500 -840 Descending Chicago Center
08:34AM 42.1719 -87.7031 219° Southwest 226 260 4,900 -840 Descending Chicago Center
08:35AM 42.1247 -87.7556 220° Southwest 221 254 3,900 -1,080 Descending Chicago Center
08:36AM 42.0803 -87.8053 220° Southwest 215 247 2,800 -1,020 Descending Chicago Center
08:37AM 42.0494 -87.8419 221° Southwest 175 201 1,900 -780 Descending Chicago Center
08:38AM 42.0208 -87.8711 217° Southwest 147 169 1,300 -420 Descending Chicago Center
08:39AM 41.9917 -87.9014 218° Southwest 144 166 1,100 -240 Descending Chicago Center